sensor_id;sensor_type;location;lat;lon;timestamp;temperature;humidity
52267;DHT22;38223;50.940;4.034;2023-01-16T00:01:13;5.80;99.90
52267;DHT22;38223;50.940;4.034;2023-01-16T00:03:48;5.80;99.90
52267;DHT22;38223;50.940;4.034;2023-01-16T00:06:23;5.80;99.90
52267;DHT22;38223;50.940;4.034;2023-01-16T00:08:53;5.80;99.90
52267;DHT22;38223;50.940;4.034;2023-01-16T00:11:26;5.80;99.90
52267;DHT22;38223;50.940;4.034;2023-01-16T00:13:54;5.80;99.90
52267;DHT22;38223;50.940;4.034;2023-01-16T00:16:29;5.80;99.90
52267;DHT22;38223;50.940;4.034;2023-01-16T00:19:00;5.80;99.90
52267;DHT22;38223;50.940;4.034;2023-01-16T00:21:30;5.90;99.90
52267;DHT22;38223;50.940;4.034;2023-01-16T00:24:04;5.90;99.90
52267;DHT22;38223;50.940;4.034;2023-01-16T00:26:36;5.90;99.90
52267;DHT22;38223;50.940;4.034;2023-01-16T00:29:16;5.90;99.90
52267;DHT22;38223;50.940;4.034;2023-01-16T00:31:45;5.90;99.90
52267;DHT22;38223;50.940;4.034;2023-01-16T00:34:21;5.80;99.90
52267;DHT22;38223;50.940;4.034;2023-01-16T00:36:50;5.80;99.90
52267;DHT22;38223;50.940;4.034;2023-01-16T00:39:22;5.70;99.90
52267;DHT22;38223;50.940;4.034;2023-01-16T00:41:51;5.80;99.90
52267;DHT22;38223;50.940;4.034;2023-01-16T00:44:24;5.80;99.90
52267;DHT22;38223;50.940;4.034;2023-01-16T00:46:54;5.90;99.90
52267;DHT22;38223;50.940;4.034;2023-01-16T00:49:30;5.80;99.90
52267;DHT22;38223;50.940;4.034;2023-01-16T00:51:59;5.80;99.90
52267;DHT22;38223;50.940;4.034;2023-01-16T00:54:34;5.80;99.90
52267;DHT22;38223;50.940;4.034;2023-01-16T00:57:07;5.80;99.90
52267;DHT22;38223;50.940;4.034;2023-01-16T00:59:41;5.80;99.90
52267;DHT22;38223;50.940;4.034;2023-01-16T01:02:13;5.70;99.90
52267;DHT22;38223;50.940;4.034;2023-01-16T01:04:48;5.70;99.90
52267;DHT22;38223;50.940;4.034;2023-01-16T01:07:22;5.70;99.90
52267;DHT22;38223;50.940;4.034;2023-01-16T01:09:52;5.70;99.90
52267;DHT22;38223;50.940;4.034;2023-01-16T01:12:26;5.70;99.90
52267;DHT22;38223;50.940;4.034;2023-01-16T01:14:57;5.70;99.90
52267;DHT22;38223;50.940;4.034;2023-01-16T01:17:30;5.70;99.90
52267;DHT22;38223;50.940;4.034;2023-01-16T01:20:01;5.70;99.90
52267;DHT22;38223;50.940;4.034;2023-01-16T01:22:35;5.80;99.90
52267;DHT22;38223;50.940;4.034;2023-01-16T01:25:07;5.80;99.90
52267;DHT22;38223;50.940;4.034;2023-01-16T01:27:42;5.90;99.90
52267;DHT22;38223;50.940;4.034;2023-01-16T01:30:13;5.90;99.90
52267;DHT22;38223;50.940;4.034;2023-01-16T01:32:46;5.90;99.90
52267;DHT22;38223;50.940;4.034;2023-01-16T01:35:21;6.00;99.90
52267;DHT22;38223;50.940;4.034;2023-01-16T01:37:55;6.00;99.90
52267;DHT22;38223;50.940;4.034;2023-01-16T01:40:28;6.00;99.90
52267;DHT22;38223;50.940;4.034;2023-01-16T01:43:01;6.00;99.90
52267;DHT22;38223;50.940;4.034;2023-01-16T01:45:32;6.00;99.90
52267;DHT22;38223;50.940;4.034;2023-01-16T01:48:23;6.00;99.90
52267;DHT22;38223;50.940;4.034;2023-01-16T01:53:40;6.00;99.90
52267;DHT22;38223;50.940;4.034;2023-01-16T01:56:30;6.00;99.90
52267;DHT22;38223;50.940;4.034;2023-01-16T01:58:49;5.90;99.90
52267;DHT22;38223;50.940;4.034;2023-01-16T02:01:22;5.90;99.90
52267;DHT22;38223;50.940;4.034;2023-01-16T02:04:01;5.90;99.90
52267;DHT22;38223;50.940;4.034;2023-01-16T02:06:44;6.00;99.90
52267;DHT22;38223;50.940;4.034;2023-01-16T02:09:22;6.00;99.90
52267;DHT22;38223;50.940;4.034;2023-01-16T02:11:53;6.00;99.90
52267;DHT22;38223;50.940;4.034;2023-01-16T02:14:34;6.10;99.90
52267;DHT22;38223;50.940;4.034;2023-01-16T02:17:11;6.10;99.90
52267;DHT22;38223;50.940;4.034;2023-01-16T02:26:15;6.10;99.90
52267;DHT22;38223;50.940;4.034;2023-01-16T02:29:13;6.10;99.90
52267;DHT22;38223;50.940;4.034;2023-01-16T02:31:48;6.10;99.90
52267;DHT22;38223;50.940;4.034;2023-01-16T02:34:39;6.10;99.90
52267;DHT22;38223;50.940;4.034;2023-01-16T02:37:17;6.10;99.90
52267;DHT22;38223;50.940;4.034;2023-01-16T02:39:59;6.20;99.90
52267;DHT22;38223;50.940;4.034;2023-01-16T02:42:42;6.30;99.90
52267;DHT22;38223;50.940;4.034;2023-01-16T02:48:08;6.40;99.90
52267;DHT22;38223;50.940;4.034;2023-01-16T02:50:58;6.50;99.90
52267;DHT22;38223;50.940;4.034;2023-01-16T02:53:33;6.50;99.90
52267;DHT22;38223;50.940;4.034;2023-01-16T02:56:06;6.60;99.90
52267;DHT22;38223;50.940;4.034;2023-01-16T02:58:48;6.60;99.90
52267;DHT22;38223;50.940;4.034;2023-01-16T03:01:22;6.60;99.90
52267;DHT22;38223;50.940;4.034;2023-01-16T03:06:43;6.70;99.90
52267;DHT22;38223;50.940;4.034;2023-01-16T03:09:42;6.70;99.90
52267;DHT22;38223;50.940;4.034;2023-01-16T03:12:28;6.70;99.90
52267;DHT22;38223;50.940;4.034;2023-01-16T03:14:55;6.80;99.90
52267;DHT22;38223;50.940;4.034;2023-01-16T03:18:45;6.80;99.90
52267;DHT22;38223;50.940;4.034;2023-01-16T03:20:56;6.80;99.90
52267;DHT22;38223;50.940;4.034;2023-01-16T03:26:44;6.90;99.90
52267;DHT22;38223;50.940;4.034;2023-01-16T03:29:31;6.90;99.90
52267;DHT22;38223;50.940;4.034;2023-01-16T03:32:07;6.90;99.90
52267;DHT22;38223;50.940;4.034;2023-01-16T03:34:53;7.00;99.90
52267;DHT22;38223;50.940;4.034;2023-01-16T03:37:24;7.00;99.90
52267;DHT22;38223;50.940;4.034;2023-01-16T03:40:03;7.10;99.90
52267;DHT22;38223;50.940;4.034;2023-01-16T03:42:36;7.10;99.90
52267;DHT22;38223;50.940;4.034;2023-01-16T03:45:13;7.10;99.90
52267;DHT22;38223;50.940;4.034;2023-01-16T03:47:46;7.00;99.90
52267;DHT22;38223;50.940;4.034;2023-01-16T03:50:17;7.00;99.90
52267;DHT22;38223;50.940;4.034;2023-01-16T03:52:51;7.00;99.90
52267;DHT22;38223;50.940;4.034;2023-01-16T03:58:36;7.10;99.90
52267;DHT22;38223;50.940;4.034;2023-01-16T04:06:45;7.00;99.90
52267;DHT22;38223;50.940;4.034;2023-01-16T04:09:36;7.00;99.90
52267;DHT22;38223;50.940;4.034;2023-01-16T04:12:04;7.10;99.90
52267;DHT22;38223;50.940;4.034;2023-01-16T04:14:45;7.00;99.90
52267;DHT22;38223;50.940;4.034;2023-01-16T04:17:16;6.90;99.90
52267;DHT22;38223;50.940;4.034;2023-01-16T04:19:54;6.90;99.90
52267;DHT22;38223;50.940;4.034;2023-01-16T04:22:25;6.80;99.90
52267;DHT22;38223;50.940;4.034;2023-01-16T04:25:00;6.50;99.90
52267;DHT22;38223;50.940;4.034;2023-01-16T04:27:33;6.50;99.90
52267;DHT22;38223;50.940;4.034;2023-01-16T04:30:07;6.70;99.90
52267;DHT22;38223;50.940;4.034;2023-01-16T04:32:39;7.00;99.90
52267;DHT22;38223;50.940;4.034;2023-01-16T04:35:11;6.90;99.90
52267;DHT22;38223;50.940;4.034;2023-01-16T04:37:40;6.90;99.90
52267;DHT22;38223;50.940;4.034;2023-01-16T04:40:16;6.70;99.90
52267;DHT22;38223;50.940;4.034;2023-01-16T04:42:49;6.40;99.90
52267;DHT22;38223;50.940;4.034;2023-01-16T04:45:23;6.40;99.90
52267;DHT22;38223;50.940;4.034;2023-01-16T04:47:56;6.50;99.90
52267;DHT22;38223;50.940;4.034;2023-01-16T04:50:28;6.50;99.90
52267;DHT22;38223;50.940;4.034;2023-01-16T04:53:00;6.50;99.90
52267;DHT22;38223;50.940;4.034;2023-01-16T04:55:29;6.50;99.90
52267;DHT22;38223;50.940;4.034;2023-01-16T04:58:01;6.50;99.90
52267;DHT22;38223;50.940;4.034;2023-01-16T05:00:33;6.70;99.90
52267;DHT22;38223;50.940;4.034;2023-01-16T05:03:07;6.90;99.90
52267;DHT22;38223;50.940;4.034;2023-01-16T05:05:38;6.90;99.90
52267;DHT22;38223;50.940;4.034;2023-01-16T05:08:10;6.60;99.90
52267;DHT22;38223;50.940;4.034;2023-01-16T05:10:47;6.50;99.90
52267;DHT22;38223;50.940;4.034;2023-01-16T05:13:18;6.40;99.90
52267;DHT22;38223;50.940;4.034;2023-01-16T05:15:50;6.50;99.90
52267;DHT22;38223;50.940;4.034;2023-01-16T05:18:23;6.70;99.90
52267;DHT22;38223;50.940;4.034;2023-01-16T05:23:33;6.70;99.90
52267;DHT22;38223;50.940;4.034;2023-01-16T05:26:04;6.40;99.90
52267;DHT22;38223;50.940;4.034;2023-01-16T05:28:40;6.40;99.90
52267;DHT22;38223;50.940;4.034;2023-01-16T05:31:11;6.40;99.90
52267;DHT22;38223;50.940;4.034;2023-01-16T05:33:45;6.40;99.90
52267;DHT22;38223;50.940;4.034;2023-01-16T05:36:16;6.40;99.90
52267;DHT22;38223;50.940;4.034;2023-01-16T05:38:47;6.40;99.90
52267;DHT22;38223;50.940;4.034;2023-01-16T05:41:18;6.40;99.90
52267;DHT22;38223;50.940;4.034;2023-01-16T05:43:51;6.40;99.90
52267;DHT22;38223;50.940;4.034;2023-01-16T05:46:24;6.40;99.90
52267;DHT22;38223;50.940;4.034;2023-01-16T05:48:57;6.50;99.90
52267;DHT22;38223;50.940;4.034;2023-01-16T05:51:29;6.30;99.90
52267;DHT22;38223;50.940;4.034;2023-01-16T05:54:03;6.30;99.90
52267;DHT22;38223;50.940;4.034;2023-01-16T05:56:35;6.40;99.90
52267;DHT22;38223;50.940;4.034;2023-01-16T05:59:12;6.40;99.90
52267;DHT22;38223;50.940;4.034;2023-01-16T06:01:41;6.30;99.90
52267;DHT22;38223;50.940;4.034;2023-01-16T06:04:11;6.30;99.90
52267;DHT22;38223;50.940;4.034;2023-01-16T06:06:42;6.30;99.90
52267;DHT22;38223;50.940;4.034;2023-01-16T06:09:13;6.30;99.90
52267;DHT22;38223;50.940;4.034;2023-01-16T06:11:46;6.20;99.90
52267;DHT22;38223;50.940;4.034;2023-01-16T06:14:19;6.10;99.90
52267;DHT22;38223;50.940;4.034;2023-01-16T06:16:49;6.00;99.90
52267;DHT22;38223;50.940;4.034;2023-01-16T06:19:25;6.00;99.90
52267;DHT22;38223;50.940;4.034;2023-01-16T06:22:02;6.10;99.90
52267;DHT22;38223;50.940;4.034;2023-01-16T06:24:39;6.10;99.90
52267;DHT22;38223;50.940;4.034;2023-01-16T06:27:08;6.00;99.90
52267;DHT22;38223;50.940;4.034;2023-01-16T06:29:42;5.90;99.90
52267;DHT22;38223;50.940;4.034;2023-01-16T06:32:12;5.90;99.90
52267;DHT22;38223;50.940;4.034;2023-01-16T06:34:47;5.90;99.90
52267;DHT22;38223;50.940;4.034;2023-01-16T06:37:17;5.80;99.90
52267;DHT22;38223;50.940;4.034;2023-01-16T06:39:47;5.80;99.90
52267;DHT22;38223;50.940;4.034;2023-01-16T06:42:15;5.90;99.90
52267;DHT22;38223;50.940;4.034;2023-01-16T06:44:49;5.90;99.90
52267;DHT22;38223;50.940;4.034;2023-01-16T06:47:17;5.90;99.90
52267;DHT22;38223;50.940;4.034;2023-01-16T06:49:47;5.90;99.90
52267;DHT22;38223;50.940;4.034;2023-01-16T06:52:18;5.90;99.90
52267;DHT22;38223;50.940;4.034;2023-01-16T06:54:48;5.90;99.90
52267;DHT22;38223;50.940;4.034;2023-01-16T06:57:22;5.70;99.90
52267;DHT22;38223;50.940;4.034;2023-01-16T06:59:52;5.60;99.90
52267;DHT22;38223;50.940;4.034;2023-01-16T07:02:23;5.70;99.90
52267;DHT22;38223;50.940;4.034;2023-01-16T07:04:58;5.60;99.90
52267;DHT22;38223;50.940;4.034;2023-01-16T07:07:29;5.60;99.90
52267;DHT22;38223;50.940;4.034;2023-01-16T07:10:02;5.70;99.90
52267;DHT22;38223;50.940;4.034;2023-01-16T07:12:37;5.70;99.90
52267;DHT22;38223;50.940;4.034;2023-01-16T07:15:08;5.70;99.90
52267;DHT22;38223;50.940;4.034;2023-01-16T07:17:56;5.70;99.90
52267;DHT22;38223;50.940;4.034;2023-01-16T07:20:33;5.70;99.90
52267;DHT22;38223;50.940;4.034;2023-01-16T07:23:25;5.70;99.90
52267;DHT22;38223;50.940;4.034;2023-01-16T07:25:54;5.70;99.90
52267;DHT22;38223;50.940;4.034;2023-01-16T07:28:28;5.70;99.90
52267;DHT22;38223;50.940;4.034;2023-01-16T07:31:00;5.90;99.90
52267;DHT22;38223;50.940;4.034;2023-01-16T07:33:32;6.00;99.90
52267;DHT22;38223;50.940;4.034;2023-01-16T07:36:07;5.90;99.90
52267;DHT22;38223;50.940;4.034;2023-01-16T07:38:40;5.90;99.90
52267;DHT22;38223;50.940;4.034;2023-01-16T07:41:14;5.90;99.90
52267;DHT22;38223;50.940;4.034;2023-01-16T07:43:46;6.00;99.90
52267;DHT22;38223;50.940;4.034;2023-01-16T07:46:16;6.10;99.90
52267;DHT22;38223;50.940;4.034;2023-01-16T07:48:48;6.10;99.90
52267;DHT22;38223;50.940;4.034;2023-01-16T08:00:45;6.20;99.90
52267;DHT22;38223;50.940;4.034;2023-01-16T08:03:24;6.30;99.90
52267;DHT22;38223;50.940;4.034;2023-01-16T08:06:11;6.30;99.90
52267;DHT22;38223;50.940;4.034;2023-01-16T08:08:49;6.30;99.90
52267;DHT22;38223;50.940;4.034;2023-01-16T08:11:25;6.30;99.90
52267;DHT22;38223;50.940;4.034;2023-01-16T08:14:05;6.30;99.90
52267;DHT22;38223;50.940;4.034;2023-01-16T08:16:43;6.30;99.90
52267;DHT22;38223;50.940;4.034;2023-01-16T08:19:15;6.30;99.90
52267;DHT22;38223;50.940;4.034;2023-01-16T08:21:54;6.40;99.90
52267;DHT22;38223;50.940;4.034;2023-01-16T08:24:32;6.40;99.90
52267;DHT22;38223;50.940;4.034;2023-01-16T08:27:05;6.40;99.90
52267;DHT22;38223;50.940;4.034;2023-01-16T08:29:41;6.40;99.90
52267;DHT22;38223;50.940;4.034;2023-01-16T08:32:30;6.40;99.90
52267;DHT22;38223;50.940;4.034;2023-01-16T08:35:06;6.40;99.90
52267;DHT22;38223;50.940;4.034;2023-01-16T08:37:45;6.40;99.90
52267;DHT22;38223;50.940;4.034;2023-01-16T08:40:16;6.40;99.90
52267;DHT22;38223;50.940;4.034;2023-01-16T08:42:55;6.40;99.90
52267;DHT22;38223;50.940;4.034;2023-01-16T08:45:45;6.50;99.90
52267;DHT22;38223;50.940;4.034;2023-01-16T08:48:37;6.60;99.90
52267;DHT22;38223;50.940;4.034;2023-01-16T08:51:17;6.60;99.90
52267;DHT22;38223;50.940;4.034;2023-01-16T08:54:03;6.70;99.90
52267;DHT22;38223;50.940;4.034;2023-01-16T08:56:45;6.70;99.90
52267;DHT22;38223;50.940;4.034;2023-01-16T08:59:21;6.80;99.90
52267;DHT22;38223;50.940;4.034;2023-01-16T09:02:06;6.80;99.90
52267;DHT22;38223;50.940;4.034;2023-01-16T09:04:51;6.80;99.90
52267;DHT22;38223;50.940;4.034;2023-01-16T09:07:25;6.80;99.90
52267;DHT22;38223;50.940;4.034;2023-01-16T09:10:08;6.90;99.90
52267;DHT22;38223;50.940;4.034;2023-01-16T09:12:48;6.80;99.90
52267;DHT22;38223;50.940;4.034;2023-01-16T09:15:50;6.80;99.90
52267;DHT22;38223;50.940;4.034;2023-01-16T09:18:29;6.70;99.90
52267;DHT22;38223;50.940;4.034;2023-01-16T09:21:07;6.70;99.90
52267;DHT22;38223;50.940;4.034;2023-01-16T09:23:40;6.70;99.90
52267;DHT22;38223;50.940;4.034;2023-01-16T09:26:31;6.70;99.90
52267;DHT22;38223;50.940;4.034;2023-01-16T09:29:12;6.80;99.90
52267;DHT22;38223;50.940;4.034;2023-01-16T09:31:51;6.70;99.90
52267;DHT22;38223;50.940;4.034;2023-01-16T09:34:32;6.70;99.90
52267;DHT22;38223;50.940;4.034;2023-01-16T09:37:11;6.70;99.90
52267;DHT22;38223;50.940;4.034;2023-01-16T09:39:44;6.70;99.90
52267;DHT22;38223;50.940;4.034;2023-01-16T09:45:43;6.70;99.90
52267;DHT22;38223;50.940;4.034;2023-01-16T09:48:29;6.80;99.90
52267;DHT22;38223;50.940;4.034;2023-01-16T09:51:10;6.90;99.90
52267;DHT22;38223;50.940;4.034;2023-01-16T09:53:57;6.70;99.90
52267;DHT22;38223;50.940;4.034;2023-01-16T09:56:46;6.70;99.90
52267;DHT22;38223;50.940;4.034;2023-01-16T09:59:45;6.80;99.90
52267;DHT22;38223;50.940;4.034;2023-01-16T10:02:29;6.80;99.90
52267;DHT22;38223;50.940;4.034;2023-01-16T10:05:06;6.80;99.90
52267;DHT22;38223;50.940;4.034;2023-01-16T10:07:55;6.90;99.90
52267;DHT22;38223;50.940;4.034;2023-01-16T10:16:25;7.00;99.90
52267;DHT22;38223;50.940;4.034;2023-01-16T10:19:08;7.00;99.90
52267;DHT22;38223;50.940;4.034;2023-01-16T10:22:17;7.00;99.90
52267;DHT22;38223;50.940;4.034;2023-01-16T10:30:47;6.90;99.90
52267;DHT22;38223;50.940;4.034;2023-01-16T10:36:42;6.90;99.90
52267;DHT22;38223;50.940;4.034;2023-01-16T10:39:52;6.90;99.90
52267;DHT22;38223;50.940;4.034;2023-01-16T10:45:10;6.60;99.90
52267;DHT22;38223;50.940;4.034;2023-01-16T10:47:49;6.50;99.90
52267;DHT22;38223;50.940;4.034;2023-01-16T10:50:37;6.60;99.90
52267;DHT22;38223;50.940;4.034;2023-01-16T10:53:11;6.70;99.90
52267;DHT22;38223;50.940;4.034;2023-01-16T10:55:46;6.60;99.90
52267;DHT22;38223;50.940;4.034;2023-01-16T10:58:37;6.60;99.90
52267;DHT22;38223;50.940;4.034;2023-01-16T11:01:16;6.50;99.90
52267;DHT22;38223;50.940;4.034;2023-01-16T11:03:58;6.50;99.90
52267;DHT22;38223;50.940;4.034;2023-01-16T11:06:32;6.50;99.90
52267;DHT22;38223;50.940;4.034;2023-01-16T11:11:49;6.30;99.90
52267;DHT22;38223;50.940;4.034;2023-01-16T11:14:41;6.40;99.90
52267;DHT22;38223;50.940;4.034;2023-01-16T11:17:32;6.60;99.90
52267;DHT22;38223;50.940;4.034;2023-01-16T11:20:25;6.80;99.90
52267;DHT22;38223;50.940;4.034;2023-01-16T11:23:05;6.90;99.90
52267;DHT22;38223;50.940;4.034;2023-01-16T11:25:37;7.00;99.90
52267;DHT22;38223;50.940;4.034;2023-01-16T11:28:16;6.80;99.90
52267;DHT22;38223;50.940;4.034;2023-01-16T11:30:48;6.90;99.90
52267;DHT22;38223;50.940;4.034;2023-01-16T11:33:20;6.80;99.90
52267;DHT22;38223;50.940;4.034;2023-01-16T11:36:00;6.70;99.90
52267;DHT22;38223;50.940;4.034;2023-01-16T11:38:34;6.70;99.90
52267;DHT22;38223;50.940;4.034;2023-01-16T11:41:09;6.80;99.90
52267;DHT22;38223;50.940;4.034;2023-01-16T11:43:42;6.90;99.90
52267;DHT22;38223;50.940;4.034;2023-01-16T11:46:40;7.00;99.90
52267;DHT22;38223;50.940;4.034;2023-01-16T11:49:23;7.20;99.90
52267;DHT22;38223;50.940;4.034;2023-01-16T11:51:58;7.20;99.90
52267;DHT22;38223;50.940;4.034;2023-01-16T11:54:32;7.30;99.90
52267;DHT22;38223;50.940;4.034;2023-01-16T11:57:09;7.40;99.90
52267;DHT22;38223;50.940;4.034;2023-01-16T12:00:13;7.50;99.90
52267;DHT22;38223;50.940;4.034;2023-01-16T12:02:48;7.50;99.90
52267;DHT22;38223;50.940;4.034;2023-01-16T12:05:25;7.30;99.90
52267;DHT22;38223;50.940;4.034;2023-01-16T12:14:04;7.20;99.90
52267;DHT22;38223;50.940;4.034;2023-01-16T12:17:09;7.20;99.90
52267;DHT22;38223;50.940;4.034;2023-01-16T12:19:55;7.40;99.90
52267;DHT22;38223;50.940;4.034;2023-01-16T12:25:23;7.40;99.90
52267;DHT22;38223;50.940;4.034;2023-01-16T12:27:59;7.40;99.90
52267;DHT22;38223;50.940;4.034;2023-01-16T12:36:29;7.60;99.90
52267;DHT22;38223;50.940;4.034;2023-01-16T12:39:10;7.60;99.90
52267;DHT22;38223;50.940;4.034;2023-01-16T12:41:45;7.50;99.90
52267;DHT22;38223;50.940;4.034;2023-01-16T12:53:58;7.50;99.90
52267;DHT22;38223;50.940;4.034;2023-01-16T12:56:43;7.50;99.90
52267;DHT22;38223;50.940;4.034;2023-01-16T12:59:26;7.40;99.90
52267;DHT22;38223;50.940;4.034;2023-01-16T13:01:59;7.50;99.90
52267;DHT22;38223;50.940;4.034;2023-01-16T13:04:34;7.60;99.90
52267;DHT22;38223;50.940;4.034;2023-01-16T13:07:04;7.50;99.90
52267;DHT22;38223;50.940;4.034;2023-01-16T13:09:40;7.60;99.90
52267;DHT22;38223;50.940;4.034;2023-01-16T13:12:27;7.70;99.90
52267;DHT22;38223;50.940;4.034;2023-01-16T13:15:19;7.70;99.90
52267;DHT22;38223;50.940;4.034;2023-01-16T13:18:01;7.80;99.90
52267;DHT22;38223;50.940;4.034;2023-01-16T13:20:30;7.90;99.90
52267;DHT22;38223;50.940;4.034;2023-01-16T13:23:17;7.90;99.90
52267;DHT22;38223;50.940;4.034;2023-01-16T13:25:58;7.90;99.90
52267;DHT22;38223;50.940;4.034;2023-01-16T13:28:42;7.90;99.90
52267;DHT22;38223;50.940;4.034;2023-01-16T13:31:23;7.90;99.90
52267;DHT22;38223;50.940;4.034;2023-01-16T13:33:57;7.80;99.90
52267;DHT22;38223;50.940;4.034;2023-01-16T13:42:12;7.80;99.90
52267;DHT22;38223;50.940;4.034;2023-01-16T13:44:46;7.70;99.90
52267;DHT22;38223;50.940;4.034;2023-01-16T13:47:36;7.70;99.90
52267;DHT22;38223;50.940;4.034;2023-01-16T13:50:27;7.80;99.90
52267;DHT22;38223;50.940;4.034;2023-01-16T13:53:00;7.70;99.90
52267;DHT22;38223;50.940;4.034;2023-01-16T13:55:38;7.70;99.90
52267;DHT22;38223;50.940;4.034;2023-01-16T13:58:21;7.70;99.90
52267;DHT22;38223;50.940;4.034;2023-01-16T14:01:03;7.70;99.90
52267;DHT22;38223;50.940;4.034;2023-01-16T14:03:35;7.60;99.90
52267;DHT22;38223;50.940;4.034;2023-01-16T14:06:16;7.60;99.90
52267;DHT22;38223;50.940;4.034;2023-01-16T14:08:48;7.50;99.90
52267;DHT22;38223;50.940;4.034;2023-01-16T14:14:35;7.40;99.90
52267;DHT22;38223;50.940;4.034;2023-01-16T14:17:29;7.40;99.90
52267;DHT22;38223;50.940;4.034;2023-01-16T14:20:00;7.30;99.90
52267;DHT22;38223;50.940;4.034;2023-01-16T14:22:44;7.30;99.90
52267;DHT22;38223;50.940;4.034;2023-01-16T14:25:35;7.20;99.90
52267;DHT22;38223;50.940;4.034;2023-01-16T14:28:14;7.10;99.90
52267;DHT22;38223;50.940;4.034;2023-01-16T14:30:40;7.10;99.90
52267;DHT22;38223;50.940;4.034;2023-01-16T14:33:21;7.10;99.90
52267;DHT22;38223;50.940;4.034;2023-01-16T14:35:54;7.30;99.90
52267;DHT22;38223;50.940;4.034;2023-01-16T14:38:28;7.50;99.90
52267;DHT22;38223;50.940;4.034;2023-01-16T14:41:01;7.50;99.90
52267;DHT22;38223;50.940;4.034;2023-01-16T14:50:14;7.00;99.90
52267;DHT22;38223;50.940;4.034;2023-01-16T14:54:02;6.70;99.90
52267;DHT22;38223;50.940;4.034;2023-01-16T14:56:26;6.60;99.90
52267;DHT22;38223;50.940;4.034;2023-01-16T14:58:57;6.50;99.90
52267;DHT22;38223;50.940;4.034;2023-01-16T15:01:40;6.10;99.90
52267;DHT22;38223;50.940;4.034;2023-01-16T15:04:21;6.00;99.90
52267;DHT22;38223;50.940;4.034;2023-01-16T15:06:59;5.80;99.90
52267;DHT22;38223;50.940;4.034;2023-01-16T15:09:31;5.70;99.90
52267;DHT22;38223;50.940;4.034;2023-01-16T15:12:08;5.40;99.90
52267;DHT22;38223;50.940;4.034;2023-01-16T15:14:35;5.30;99.90
52267;DHT22;38223;50.940;4.034;2023-01-16T15:17:22;5.30;99.90
52267;DHT22;38223;50.940;4.034;2023-01-16T15:20:26;5.30;99.90
52267;DHT22;38223;50.940;4.034;2023-01-16T15:23:01;5.60;99.90
52267;DHT22;38223;50.940;4.034;2023-01-16T15:28:46;5.40;99.90
52267;DHT22;38223;50.940;4.034;2023-01-16T15:30:57;5.40;99.90
52267;DHT22;38223;50.940;4.034;2023-01-16T15:33:30;5.30;99.90
52267;DHT22;38223;50.940;4.034;2023-01-16T15:39:23;5.20;99.90
52267;DHT22;38223;50.940;4.034;2023-01-16T15:45:17;5.20;99.90
52267;DHT22;38223;50.940;4.034;2023-01-16T15:51:11;5.20;99.90
52267;DHT22;38223;50.940;4.034;2023-01-16T15:53:47;5.60;99.90
52267;DHT22;38223;50.940;4.034;2023-01-16T15:56:29;5.70;99.90
52267;DHT22;38223;50.940;4.034;2023-01-16T15:58:56;5.80;99.90
52267;DHT22;38223;50.940;4.034;2023-01-16T16:01:32;5.80;99.90
52267;DHT22;38223;50.940;4.034;2023-01-16T16:04:05;5.80;99.90
52267;DHT22;38223;50.940;4.034;2023-01-16T16:06:41;5.80;99.90
52267;DHT22;38223;50.940;4.034;2023-01-16T16:09:21;5.70;99.90
52267;DHT22;38223;50.940;4.034;2023-01-16T16:11:52;5.70;99.90
52267;DHT22;38223;50.940;4.034;2023-01-16T16:14:38;5.80;99.90
52267;DHT22;38223;50.940;4.034;2023-01-16T16:17:33;5.70;99.90
52267;DHT22;38223;50.940;4.034;2023-01-16T16:20:40;5.70;99.90
52267;DHT22;38223;50.940;4.034;2023-01-16T16:25:57;5.70;99.90
52267;DHT22;38223;50.940;4.034;2023-01-16T16:28:34;5.70;99.90
52267;DHT22;38223;50.940;4.034;2023-01-16T16:31:09;5.60;99.90
52267;DHT22;38223;50.940;4.034;2023-01-16T16:33:35;5.70;99.90
52267;DHT22;38223;50.940;4.034;2023-01-16T16:36:12;5.70;99.90
52267;DHT22;38223;50.940;4.034;2023-01-16T16:38:48;5.70;99.90
52267;DHT22;38223;50.940;4.034;2023-01-16T16:41:43;5.70;99.90
52267;DHT22;38223;50.940;4.034;2023-01-16T16:44:33;5.70;99.90
52267;DHT22;38223;50.940;4.034;2023-01-16T16:47:21;5.60;99.90
52267;DHT22;38223;50.940;4.034;2023-01-16T16:49:39;5.70;99.90
52267;DHT22;38223;50.940;4.034;2023-01-16T16:55:03;5.80;99.90
52267;DHT22;38223;50.940;4.034;2023-01-16T16:57:46;5.70;99.90
52267;DHT22;38223;50.940;4.034;2023-01-16T17:00:17;5.60;99.90
52267;DHT22;38223;50.940;4.034;2023-01-16T17:05:37;5.60;99.90
52267;DHT22;38223;50.940;4.034;2023-01-16T17:08:13;5.60;99.90
52267;DHT22;38223;50.940;4.034;2023-01-16T17:10:47;5.50;99.90
52267;DHT22;38223;50.940;4.034;2023-01-16T17:13:23;5.40;99.90
52267;DHT22;38223;50.940;4.034;2023-01-16T17:15:56;5.30;99.90
52267;DHT22;38223;50.940;4.034;2023-01-16T17:18:28;5.10;99.90
52267;DHT22;38223;50.940;4.034;2023-01-16T17:20:59;4.80;99.90
52267;DHT22;38223;50.940;4.034;2023-01-16T17:23:34;4.70;99.90
52267;DHT22;38223;50.940;4.034;2023-01-16T17:26:06;4.70;99.90
52267;DHT22;38223;50.940;4.034;2023-01-16T17:28:38;4.60;99.90
52267;DHT22;38223;50.940;4.034;2023-01-16T17:31:15;4.60;99.90
52267;DHT22;38223;50.940;4.034;2023-01-16T17:33:52;4.50;99.90
52267;DHT22;38223;50.940;4.034;2023-01-16T17:36:24;4.40;99.90
52267;DHT22;38223;50.940;4.034;2023-01-16T17:38:55;4.30;99.90
52267;DHT22;38223;50.940;4.034;2023-01-16T17:41:28;4.30;99.90
52267;DHT22;38223;50.940;4.034;2023-01-16T17:44:13;4.30;99.90
52267;DHT22;38223;50.940;4.034;2023-01-16T17:46:59;4.30;99.90
52267;DHT22;38223;50.940;4.034;2023-01-16T17:49:29;4.30;99.90
52267;DHT22;38223;50.940;4.034;2023-01-16T17:52:02;4.20;99.90
52267;DHT22;38223;50.940;4.034;2023-01-16T17:54:35;4.20;99.90
52267;DHT22;38223;50.940;4.034;2023-01-16T17:57:21;4.40;99.90
52267;DHT22;38223;50.940;4.034;2023-01-16T17:59:53;4.50;99.90
52267;DHT22;38223;50.940;4.034;2023-01-16T18:02:23;4.60;99.90
52267;DHT22;38223;50.940;4.034;2023-01-16T18:04:51;4.70;99.90
52267;DHT22;38223;50.940;4.034;2023-01-16T18:07:18;5.00;99.90
52267;DHT22;38223;50.940;4.034;2023-01-16T18:09:48;5.20;99.90
52267;DHT22;38223;50.940;4.034;2023-01-16T18:12:21;5.30;99.90
52267;DHT22;38223;50.940;4.034;2023-01-16T18:15:08;5.30;99.90
52267;DHT22;38223;50.940;4.034;2023-01-16T18:17:57;5.20;99.90
52267;DHT22;38223;50.940;4.034;2023-01-16T18:20:30;5.00;99.90
52267;DHT22;38223;50.940;4.034;2023-01-16T18:23:02;5.00;99.90
52267;DHT22;38223;50.940;4.034;2023-01-16T18:25:31;5.10;99.90
52267;DHT22;38223;50.940;4.034;2023-01-16T18:27:59;5.10;99.90
52267;DHT22;38223;50.940;4.034;2023-01-16T18:30:30;5.10;99.90
52267;DHT22;38223;50.940;4.034;2023-01-16T18:33:03;5.10;99.90
52267;DHT22;38223;50.940;4.034;2023-01-16T18:35:34;5.20;99.90
52267;DHT22;38223;50.940;4.034;2023-01-16T18:38:07;5.20;99.90
52267;DHT22;38223;50.940;4.034;2023-01-16T18:40:56;5.10;99.90
52267;DHT22;38223;50.940;4.034;2023-01-16T18:43:46;5.10;99.90
52267;DHT22;38223;50.940;4.034;2023-01-16T18:46:32;5.20;99.90
52267;DHT22;38223;50.940;4.034;2023-01-16T18:49:20;5.20;99.90
52267;DHT22;38223;50.940;4.034;2023-01-16T18:52:13;5.20;99.90